createdAt,value
2022-09-12T00:01:20.687Z,97172.96
2022-09-12T00:03:51.793Z,97170.77
2022-09-12T00:06:23.913Z,97170.42
2022-09-12T00:08:55.327Z,97167.30
2022-09-12T00:11:23.247Z,97167.30
2022-09-12T00:13:51.040Z,97166.27
2022-09-12T00:16:24.858Z,97159.80
2022-09-12T00:18:53.773Z,97156.89
2022-09-12T00:21:23.063Z,97157.91
2022-09-12T00:23:51.758Z,97152.00
2022-09-12T00:26:21.951Z,97150.41
2022-09-12T00:28:50.584Z,97148.31
2022-09-12T00:31:26.804Z,97147.38
2022-09-12T00:33:57.277Z,97145.73
2022-09-12T00:36:26.277Z,97148.12
2022-09-12T00:38:54.785Z,97151.02
2022-09-12T00:41:26.275Z,97151.92
2022-09-12T00:43:58.672Z,97148.42
2022-09-12T00:46:29.352Z,97147.96
2022-09-12T00:49:03.823Z,97149.16
2022-09-12T00:51:35.254Z,97150.02
2022-09-12T00:54:08.353Z,97142.27
2022-09-12T00:56:38.876Z,97146.73
2022-09-12T00:59:17.657Z,97146.50
2022-09-12T01:01:50.223Z,97146.00
2022-09-12T01:04:22.733Z,97144.98
2022-09-12T01:06:51.172Z,97146.46
2022-09-12T01:09:23.635Z,97146.34
2022-09-12T01:11:53.385Z,97145.42
2022-09-12T01:14:21.919Z,97147.94
2022-09-12T01:16:51.183Z,97148.88
2022-09-12T01:19:33.333Z,97146.52
2022-09-12T01:22:22.596Z,97146.67
2022-09-12T01:24:50.635Z,97153.47
2022-09-12T01:27:50.958Z,97156.22
2022-09-12T01:30:25.685Z,97162.23
2022-09-12T01:33:12.227Z,97160.41
2022-09-12T01:35:46.140Z,97157.91
2022-09-12T01:38:33.176Z,97157.89
2022-09-12T01:41:09.978Z,97157.80
2022-09-12T01:44:05.609Z,97161.95
2022-09-12T01:46:45.839Z,97155.63
2022-09-12T01:49:20.613Z,97157.59
2022-09-12T01:52:06.415Z,97156.25
2022-09-12T01:54:44.119Z,97152.63
2022-09-12T01:57:21.822Z,97149.50
2022-09-12T01:59:54.404Z,97151.63
2022-09-12T02:02:28.537Z,97148.70
2022-09-12T02:05:28.273Z,97148.35
2022-09-12T02:08:29.346Z,97142.89
2022-09-12T02:11:02.290Z,97138.36
2022-09-12T02:13:43.257Z,97135.79
2022-09-12T02:16:35.415Z,97138.68
2022-09-12T02:19:11.210Z,97134.09
2022-09-12T02:21:42.437Z,97129.84
2022-09-12T02:24:14.733Z,97133.65
2022-09-12T02:26:52.740Z,97137.40
2022-09-12T02:29:21.087Z,97141.23
2022-09-12T02:31:57.912Z,97142.07
2022-09-12T02:34:25.589Z,97140.47
2022-09-12T02:36:56.361Z,97141.99
2022-09-12T02:39:24.787Z,97141.14
2022-09-12T02:41:56.088Z,97148.72
2022-09-12T02:44:26.072Z,97149.10
2022-09-12T02:47:14.074Z,97147.89
2022-09-12T02:49:41.987Z,97150.53
2022-09-12T02:52:10.021Z,97153.77
2022-09-12T02:54:38.283Z,97154.17
2022-09-12T02:57:20.638Z,97151.17
2022-09-12T02:59:53.661Z,97150.68
2022-09-12T03:02:52.481Z,97152.29
2022-09-12T03:05:47.386Z,97153.51
2022-09-12T03:08:41.735Z,97158.74
2022-09-12T03:11:34.314Z,97164.34
2022-09-12T03:14:23.301Z,97167.29
2022-09-12T03:17:31.457Z,97171.75
2022-09-12T03:20:25.185Z,97174.23
2022-09-12T03:23:02.893Z,97171.58
2022-09-12T03:25:40.351Z,97177.84
2022-09-12T03:28:12.042Z,97185.19
2022-09-12T03:30:44.298Z,97185.20
2022-09-12T03:33:13.815Z,97190.84
2022-09-12T03:35:42.356Z,97197.80
2022-09-12T03:38:10.476Z,97196.61
2022-09-12T03:40:39.279Z,97201.39
2022-09-12T03:43:08.864Z,97208.70
2022-09-12T03:45:37.655Z,97211.36
2022-09-12T03:48:06.551Z,97214.41
2022-09-12T03:50:34.697Z,97215.12
2022-09-12T03:53:03.785Z,97221.20
2022-09-12T03:55:31.829Z,97222.05
2022-09-12T03:57:59.781Z,97217.85
2022-09-12T04:00:27.677Z,97214.67
2022-09-12T04:02:58.641Z,97218.67
2022-09-12T04:05:26.676Z,97220.10
2022-09-12T04:07:54.534Z,97226.44
2022-09-12T04:10:22.791Z,97226.30
2022-09-12T04:12:51.945Z,97229.73
2022-09-12T04:15:19.883Z,97229.50
2022-09-12T04:17:47.650Z,97232.34
2022-09-12T04:20:15.572Z,97239.19
2022-09-12T04:22:43.471Z,97238.04
2022-09-12T04:25:11.917Z,97239.05
2022-09-12T04:27:39.850Z,97241.40
2022-09-12T04:30:08.988Z,97237.91
2022-09-12T04:32:37.085Z,97233.73
2022-09-12T04:35:05.309Z,97240.90
2022-09-12T04:37:33.170Z,97239.99
2022-09-12T04:40:01.001Z,97238.70
2022-09-12T04:42:29.906Z,97239.55
2022-09-12T04:44:58.007Z,97241.69
2022-09-12T04:47:25.858Z,97241.02
2022-09-12T04:49:54.100Z,97241.11
2022-09-12T04:52:22.211Z,97243.95
2022-09-12T04:54:50.807Z,97249.27
2022-09-12T04:57:18.762Z,97249.95
2022-09-12T04:59:46.645Z,97254.92
2022-09-12T05:02:14.613Z,97255.00
2022-09-12T05:04:42.622Z,97249.04
2022-09-12T05:07:10.551Z,97251.87
2022-09-12T05:09:38.510Z,97251.30
2022-09-12T05:12:07.535Z,97255.61
2022-09-12T05:14:35.718Z,97257.84
2022-09-12T05:17:06.643Z,97266.88
2022-09-12T05:19:35.186Z,97272.36
2022-09-12T05:22:05.096Z,97267.25
2022-09-12T05:24:33.094Z,97269.17
2022-09-12T05:27:01.298Z,97269.75
2022-09-12T05:29:29.164Z,97266.09
2022-09-12T05:31:57.021Z,97267.48
2022-09-12T05:34:25.117Z,97269.42
2022-09-12T05:36:53.005Z,97264.64
2022-09-12T05:39:22.137Z,97263.01
2022-09-12T05:41:50.061Z,97261.90
2022-09-12T05:44:18.022Z,97262.66
2022-09-12T05:46:50.465Z,97259.17
2022-09-12T05:49:18.455Z,97257.65
2022-09-12T05:51:46.708Z,97248.50
2022-09-12T05:54:18.211Z,97251.48
2022-09-12T05:56:47.161Z,97250.52
2022-09-12T05:59:20.730Z,97255.03
2022-09-12T06:01:49.079Z,97252.24
2022-09-12T06:04:17.759Z,97251.72
2022-09-12T06:06:46.240Z,97253.55
2022-09-12T06:09:15.968Z,97254.42
2022-09-12T06:11:45.911Z,97256.61
2022-09-12T06:14:17.594Z,97250.48
2022-09-12T06:16:47.472Z,97246.64
2022-09-12T06:19:21.740Z,97246.73
2022-09-12T06:21:51.672Z,97244.13
2022-09-12T06:24:21.164Z,97245.65
2022-09-12T06:26:50.223Z,97242.42
2022-09-12T06:29:19.510Z,97244.41
2022-09-12T06:31:47.527Z,97244.10
2022-09-12T06:34:16.382Z,97249.51
2022-09-12T06:36:47.982Z,97248.48
2022-09-12T06:39:23.407Z,97242.51
2022-09-12T06:41:52.333Z,97248.32
2022-09-12T06:44:31.790Z,97243.87
2022-09-12T06:46:59.715Z,97247.73
2022-09-12T06:49:27.622Z,97245.45
2022-09-12T06:51:55.633Z,97241.86
2022-09-12T06:54:23.732Z,97243.99
2022-09-12T06:56:52.260Z,97241.81
2022-09-12T06:59:20.236Z,97240.70
2022-09-12T07:01:48.434Z,97238.65
2022-09-12T07:04:16.855Z,97241.40
2022-09-12T07:06:45.084Z,97241.59
2022-09-12T07:09:18.049Z,97242.35
2022-09-12T07:11:46.760Z,97248.74
2022-09-12T07:14:15.129Z,97247.52
2022-09-12T07:16:43.539Z,97246.41
2022-09-12T07:19:12.261Z,97240.93
2022-09-12T07:21:40.992Z,97245.40
2022-09-12T07:24:11.105Z,97248.70
2022-09-12T07:26:42.503Z,97244.16
2022-09-12T07:32:06.731Z,97246.88
2022-09-12T07:34:36.085Z,97250.64
2022-09-12T07:37:04.997Z,97253.45
2022-09-12T07:39:32.950Z,97252.40
2022-09-12T07:42:01.162Z,97260.79
2022-09-12T07:44:30.904Z,97252.77
2022-09-12T07:46:58.897Z,97258.65
2022-09-12T07:49:27.027Z,97257.25
2022-09-12T07:51:55.207Z,97253.48
2022-09-12T07:54:23.629Z,97255.05
2022-09-12T07:56:51.866Z,97263.01
2022-09-12T07:59:35.624Z,97267.67
2022-09-12T08:02:17.473Z,97257.13
2022-09-12T08:04:48.728Z,97258.41
2022-09-12T08:07:18.533Z,97261.13
2022-09-12T08:09:47.216Z,97266.98
2022-09-12T08:12:16.685Z,97256.81
2022-09-12T08:14:44.712Z,97253.55
2022-09-12T08:17:14.465Z,97256.69
2022-09-12T08:19:42.912Z,97256.34
2022-09-12T08:22:12.414Z,97259.42
2022-09-12T08:24:40.970Z,97257.88
2022-09-12T08:27:09.208Z,97257.75
2022-09-12T08:29:37.427Z,97258.79
2022-09-12T08:32:05.870Z,97257.36
2022-09-12T08:34:34.138Z,97255.62
2022-09-12T08:37:02.206Z,97251.10
2022-09-12T08:39:30.328Z,97258.08
2022-09-12T08:42:06.554Z,97262.03
2022-09-12T08:44:54.034Z,97263.67
2022-09-12T08:47:34.288Z,97255.89
2022-09-12T08:50:08.375Z,97251.05
2022-09-12T08:52:44.936Z,97259.84
2022-09-12T08:55:36.326Z,97248.73
2022-09-12T08:58:17.281Z,97250.77
2022-09-12T09:01:08.884Z,97250.88
2022-09-12T09:04:09.473Z,97238.80
2022-09-12T09:06:43.521Z,97242.09
2022-09-12T09:09:41.490Z,97258.41
2022-09-12T09:12:33.805Z,97246.51
2022-09-12T09:15:23.757Z,97248.67
2022-09-12T09:17:56.177Z,97244.30
2022-09-12T09:20:48.821Z,97242.56
2022-09-12T09:23:31.338Z,97244.55
2022-09-12T09:26:14.826Z,97238.50
2022-09-12T09:28:50.137Z,97239.46
2022-09-12T09:31:24.917Z,97235.21
2022-09-12T09:33:57.217Z,97232.85
2022-09-12T09:36:49.731Z,97247.36
2022-09-12T09:39:42.563Z,97250.60
2022-09-12T09:42:38.742Z,97250.77
2022-09-12T09:45:20.101Z,97253.46
2022-09-12T09:48:17.425Z,97255.81
2022-09-12T09:50:49.943Z,97256.60
2022-09-12T09:53:32.432Z,97253.85
2022-09-12T09:56:05.774Z,97253.35
2022-09-12T09:58:36.411Z,97250.04
2022-09-12T10:01:12.320Z,97247.30
2022-09-12T10:03:47.468Z,97248.59
2022-09-12T10:06:34.503Z,97253.13
2022-09-12T10:09:13.293Z,97254.98
2022-09-12T10:11:45.661Z,97253.27
2022-09-12T10:14:26.445Z,97250.61
2022-09-12T10:16:55.038Z,97246.64
2022-09-12T10:19:43.508Z,97254.38
2022-09-12T10:22:19.041Z,97255.07
2022-09-12T10:24:52.802Z,97241.89
2022-09-12T10:27:23.644Z,97246.83
2022-09-12T10:30:00.614Z,97241.00
2022-09-12T10:32:36.439Z,97243.48
2022-09-12T10:35:09.368Z,97244.57
2022-09-12T10:37:39.917Z,97243.83
2022-09-12T10:40:22.905Z,97245.04
2022-09-12T10:42:54.053Z,97248.34
2022-09-12T10:45:37.659Z,97246.80
2022-09-12T10:48:29.920Z,97245.34
2022-09-12T10:51:00.149Z,97252.16
2022-09-12T10:53:34.751Z,97253.36
2022-09-12T10:56:12.688Z,97255.36
2022-09-12T10:59:18.100Z,97263.35
2022-09-12T11:02:14.985Z,97261.29
2022-09-12T11:05:08.450Z,97259.77
2022-09-12T11:07:54.074Z,97260.75
2022-09-12T11:10:51.987Z,97270.55
2022-09-12T11:13:35.016Z,97275.83
2022-09-12T11:16:23.233Z,97271.42
2022-09-12T11:19:18.366Z,97277.95
2022-09-12T11:22:31.543Z,97267.16
2022-09-12T11:25:10.652Z,97270.54
2022-09-12T11:28:00.729Z,97266.90
2022-09-12T11:30:39.997Z,97271.98
2022-09-12T11:33:22.946Z,97276.87
2022-09-12T11:35:55.534Z,97279.60
2022-09-12T11:38:48.631Z,97277.67
2022-09-12T11:41:31.621Z,97269.83
2022-09-12T11:44:28.825Z,97259.21
2022-09-12T11:46:57.839Z,97258.48
2022-09-12T11:49:37.192Z,97263.71
2022-09-12T11:52:18.924Z,97264.23
2022-09-12T11:55:06.049Z,97266.64
2022-09-12T11:57:50.499Z,97255.38
2022-09-12T12:00:20.427Z,97256.94
2022-09-12T12:02:56.172Z,97269.64
2022-09-12T12:05:58.590Z,97271.93
2022-09-12T12:08:29.965Z,97262.54
2022-09-12T12:11:01.142Z,97267.55
2022-09-12T12:13:29.665Z,97261.42
2022-09-12T12:16:07.136Z,97259.21
2022-09-12T12:18:40.092Z,97269.50
2022-09-12T12:21:32.249Z,97267.78
2022-09-12T12:24:09.303Z,97265.77
2022-09-12T12:26:40.335Z,97257.98
2022-09-12T12:29:17.342Z,97249.22
2022-09-12T12:32:06.577Z,97254.11
2022-09-12T12:34:42.949Z,97258.55
2022-09-12T12:37:25.516Z,97261.08
2022-09-12T12:40:01.567Z,97263.66
2022-09-12T12:42:36.288Z,97259.81
2022-09-12T12:45:24.438Z,97257.80
2022-09-12T12:48:11.691Z,97251.80
2022-09-12T12:50:40.062Z,97256.31
2022-09-12T12:53:20.663Z,97254.39
2022-09-12T12:55:52.697Z,97259.38
2022-09-12T12:58:38.349Z,97257.86
2022-09-12T13:01:17.170Z,97266.35
2022-09-12T13:03:53.892Z,97258.30
2022-09-12T13:06:38.394Z,97260.89
2022-09-12T13:09:22.038Z,97256.63
2022-09-12T13:12:00.868Z,97255.70
2022-09-12T13:14:34.769Z,97253.25
2022-09-12T13:17:07.998Z,97255.56
2022-09-12T13:19:38.020Z,97251.71
2022-09-12T13:22:08.856Z,97255.94
2022-09-12T13:24:54.487Z,97256.05
2022-09-12T13:27:25.680Z,97262.20
2022-09-12T13:30:15.494Z,97262.30
2022-09-12T13:32:44.417Z,97262.59
2022-09-12T13:35:38.706Z,97264.48
2022-09-12T13:38:24.372Z,97275.34
2022-09-12T13:41:24.323Z,97274.75
2022-09-12T13:43:53.263Z,97275.08
2022-09-12T13:46:30.355Z,97274.86
2022-09-12T13:49:01.977Z,97278.08
2022-09-12T13:51:32.377Z,97267.59
2022-09-12T13:54:05.211Z,97259.34
2022-09-12T13:56:33.974Z,97262.15
2022-09-12T13:59:03.173Z,97266.14
2022-09-12T14:01:47.754Z,97268.02
2022-09-12T14:04:41.103Z,97267.29
2022-09-12T14:07:22.410Z,97271.48
2022-09-12T14:09:56.775Z,97268.13
2022-09-12T14:12:26.629Z,97270.02
2022-09-12T14:14:55.563Z,97265.30
2022-09-12T14:17:36.360Z,97264.65
2022-09-12T14:20:16.284Z,97264.08
2022-09-12T14:22:49.251Z,97268.11
2022-09-12T14:25:29.761Z,97266.94
2022-09-12T14:27:58.278Z,97260.23
2022-09-12T14:30:33.067Z,97256.34
2022-09-12T14:33:06.129Z,97261.52
2022-09-12T14:35:34.655Z,97258.16
2022-09-12T14:38:13.856Z,97256.37
2022-09-12T14:40:48.763Z,97257.93
2022-09-12T14:43:32.631Z,97253.60
2022-09-12T14:46:20.718Z,97259.24
2022-09-12T14:49:05.917Z,97253.05
2022-09-12T14:51:51.681Z,97257.70
2022-09-12T14:54:29.382Z,97256.05
2022-09-12T14:57:01.035Z,97249.91
2022-09-12T14:59:35.121Z,97256.89
2022-09-12T15:02:21.394Z,97255.31
2022-09-12T15:04:52.748Z,97257.39
2022-09-12T15:07:31.766Z,97258.27
2022-09-12T15:10:02.625Z,97255.94
2022-09-12T15:12:33.322Z,97255.27
2022-09-12T15:15:21.950Z,97251.14
2022-09-12T15:17:50.099Z,97256.17
2022-09-12T15:20:18.022Z,97258.98
2022-09-12T15:22:46.094Z,97255.27
2022-09-12T15:25:14.188Z,97254.61
2022-09-12T15:27:42.511Z,97254.17
2022-09-12T15:30:13.212Z,97254.16
2022-09-12T15:32:43.714Z,97251.58
2022-09-12T15:35:18.075Z,97251.39
2022-09-12T15:37:46.097Z,97249.62
2022-09-12T15:40:14.724Z,97250.04
2022-09-12T15:42:43.381Z,97248.09
2022-09-12T15:45:23.957Z,97246.36
2022-09-12T15:47:52.126Z,97247.63
2022-09-12T15:50:20.418Z,97248.43
2022-09-12T15:52:48.619Z,97252.52
2022-09-12T15:55:19.246Z,97258.16
2022-09-12T15:57:47.216Z,97258.86
2022-09-12T16:00:17.498Z,97254.86
2022-09-12T16:02:47.532Z,97254.31
2022-09-12T16:05:19.427Z,97252.93
2022-09-12T16:07:47.695Z,97252.72
2022-09-12T16:10:17.463Z,97257.61
2022-09-12T16:12:46.312Z,97256.27
2022-09-12T16:15:21.115Z,97256.05
2022-09-12T16:17:50.580Z,97252.97
2022-09-12T16:20:19.920Z,97253.44
2022-09-12T16:22:48.724Z,97254.98
2022-09-12T16:25:17.609Z,97261.70
2022-09-12T16:27:48.679Z,97266.35
2022-09-12T16:30:16.784Z,97268.21
2022-09-12T16:32:44.771Z,97266.88
2022-09-12T16:35:13.105Z,97262.55
2022-09-12T16:37:41.407Z,97262.76
2022-09-12T16:40:10.729Z,97263.30
2022-09-12T16:42:43.545Z,97268.15
2022-09-12T16:45:12.792Z,97267.52
2022-09-12T16:47:41.009Z,97265.09
2022-09-12T16:50:09.121Z,97269.37
2022-09-12T16:52:37.024Z,97274.04
2022-09-12T16:55:05.425Z,97275.26
2022-09-12T16:57:33.294Z,97275.94
2022-09-12T17:00:01.328Z,97276.55
2022-09-12T17:02:29.285Z,97275.09
2022-09-12T17:04:57.186Z,97272.66
2022-09-12T17:07:25.169Z,97275.04
2022-09-12T17:09:53.349Z,97280.39
2022-09-12T17:12:21.319Z,97285.38
2022-09-12T17:14:49.191Z,97282.72
2022-09-12T17:17:17.331Z,97279.75
2022-09-12T17:19:45.151Z,97279.48
2022-09-12T17:22:13.122Z,97280.52
2022-09-12T17:24:41.642Z,97282.15
2022-09-12T17:27:09.715Z,97281.91
2022-09-12T17:29:38.710Z,97285.53
2022-09-12T17:32:06.690Z,97285.58
2022-09-12T17:34:34.657Z,97287.00
2022-09-12T17:37:02.964Z,97287.04
2022-09-12T17:39:30.807Z,97290.34
2022-09-12T17:41:59.154Z,97291.97
2022-09-12T17:44:30.281Z,97291.30
2022-09-12T17:46:58.141Z,97289.85
2022-09-12T17:49:26.291Z,97288.75
2022-09-12T17:51:56.298Z,97292.05
2022-09-12T17:54:24.629Z,97295.34
2022-09-12T17:56:52.601Z,97300.00
2022-09-12T17:59:24.173Z,97307.63
2022-09-12T18:02:10.740Z,97319.21
2022-09-12T18:04:40.697Z,97322.64
2022-09-12T18:07:08.714Z,97318.06
2022-09-12T18:09:36.620Z,97319.42
2022-09-12T18:12:05.850Z,97326.10
2022-09-12T18:14:34.130Z,97331.27
2022-09-12T18:17:02.191Z,97331.14
2022-09-12T18:19:30.124Z,97334.60
2022-09-12T18:21:58.521Z,97338.97
2022-09-12T18:24:26.733Z,97343.16
2022-09-12T18:26:58.439Z,97349.48
2022-09-12T18:29:28.074Z,97355.03
2022-09-12T18:31:56.419Z,97356.45
2022-09-12T18:34:24.424Z,97363.90
2022-09-12T18:36:55.097Z,97367.58
2022-09-12T18:39:27.484Z,97364.56
2022-09-12T18:41:56.246Z,97360.14
2022-09-12T18:44:24.270Z,97363.70
2022-09-12T18:46:52.428Z,97366.94
2022-09-12T18:49:20.590Z,97368.43
2022-09-12T18:51:48.443Z,97369.52
2022-09-12T18:54:18.011Z,97373.27
2022-09-12T18:56:46.090Z,97374.98
2022-09-12T18:59:15.086Z,97376.25
2022-09-12T19:01:43.960Z,97376.52
2022-09-12T19:04:13.478Z,97372.85
2022-09-12T19:06:44.508Z,97369.35
2022-09-12T19:09:14.676Z,97369.87
2022-09-12T19:11:48.991Z,97370.40
2022-09-12T19:14:19.554Z,97368.05
2022-09-12T19:16:47.413Z,97369.19
2022-09-12T19:19:15.413Z,97369.05
2022-09-12T19:21:43.266Z,97369.42
2022-09-12T19:24:11.568Z,97367.05
2022-09-12T19:26:39.619Z,97365.32
2022-09-12T19:29:08.391Z,97367.48
2022-09-12T19:31:36.275Z,97366.81
2022-09-12T19:34:06.576Z,97364.74
2022-09-12T19:36:50.161Z,97362.32
2022-09-12T19:39:19.849Z,97370.81
2022-09-12T19:41:48.606Z,97373.83
2022-09-12T19:44:19.293Z,97373.77
2022-09-12T19:46:47.514Z,97374.56
2022-09-12T19:49:15.643Z,97376.09
2022-09-12T19:51:44.039Z,97377.39
2022-09-12T19:54:11.893Z,97374.52
2022-09-12T19:56:39.752Z,97376.75
2022-09-12T19:59:08.850Z,97377.54
2022-09-12T20:01:37.646Z,97376.85
2022-09-12T20:04:06.926Z,97379.15
2022-09-12T20:06:35.122Z,97378.19
2022-09-12T20:09:03.278Z,97371.77
2022-09-12T20:11:31.510Z,97373.73
2022-09-12T20:13:59.505Z,97377.49
2022-09-12T20:16:29.658Z,97378.50
2022-09-12T20:19:06.145Z,97377.61
2022-09-12T20:21:36.181Z,97382.86
2022-09-12T20:24:07.689Z,97383.29
2022-09-12T20:26:36.172Z,97383.27
2022-09-12T20:29:05.963Z,97385.23
2022-09-12T20:31:35.254Z,97383.91
2022-09-12T20:34:05.230Z,97380.54
2022-09-12T20:36:33.994Z,97381.36
2022-09-12T20:39:04.035Z,97382.55
2022-09-12T20:41:36.158Z,97377.73
2022-09-12T20:44:04.462Z,97382.50
2022-09-12T20:46:32.323Z,97383.89
2022-09-12T20:49:00.370Z,97385.45
2022-09-12T20:51:29.760Z,97388.87
2022-09-12T20:53:59.861Z,97392.67
2022-09-12T20:56:29.063Z,97390.83
2022-09-12T20:58:58.137Z,97389.88
2022-09-12T21:01:27.814Z,97390.05
2022-09-12T21:03:56.057Z,97386.00
2022-09-12T21:06:24.239Z,97385.44
2022-09-12T21:08:52.838Z,97385.84
2022-09-12T21:11:21.337Z,97386.95
2022-09-12T21:13:49.632Z,97390.10
2022-09-12T21:16:21.078Z,97386.73
2022-09-12T21:18:57.680Z,97387.74
2022-09-12T21:21:26.825Z,97388.94
2022-09-12T21:23:58.795Z,97393.98
2022-09-12T21:26:27.363Z,97394.41
2022-09-12T21:28:55.859Z,97394.88
2022-09-12T21:31:24.987Z,97394.28
2022-09-12T21:33:53.078Z,97393.70
2022-09-12T21:36:21.364Z,97395.15
2022-09-12T21:38:49.478Z,97392.94
2022-09-12T21:41:18.546Z,97387.14
2022-09-12T21:43:46.690Z,97389.60
2022-09-12T21:46:14.937Z,97385.48
2022-09-12T21:48:43.655Z,97383.77
2022-09-12T21:51:12.129Z,97376.10
2022-09-12T21:53:40.179Z,97376.86
2022-09-12T21:56:09.085Z,97374.79
2022-09-12T21:58:38.119Z,97374.94
2022-09-12T22:01:09.715Z,97371.83
2022-09-12T22:03:38.036Z,97371.89
2022-09-12T22:06:07.565Z,97369.87
2022-09-12T22:08:37.720Z,97369.07
2022-09-12T22:11:09.779Z,97367.41
2022-09-12T22:13:39.943Z,97363.67
2022-09-12T22:16:08.109Z,97360.38
2022-09-12T22:18:37.632Z,97356.33
2022-09-12T22:21:09.331Z,97354.17
2022-09-12T22:23:56.079Z,97353.70
2022-09-12T22:26:24.633Z,97353.67
2022-09-12T22:28:54.593Z,97353.33
2022-09-12T22:31:23.365Z,97352.89
2022-09-12T22:33:51.542Z,97356.36
2022-09-12T22:36:19.415Z,97351.68
2022-09-12T22:38:47.471Z,97351.61
2022-09-12T22:41:15.846Z,97352.55
2022-09-12T22:43:43.626Z,97347.61
2022-09-12T22:46:12.696Z,97348.70
2022-09-12T22:48:41.647Z,97348.55
2022-09-12T22:51:11.053Z,97347.40
2022-09-12T22:53:39.240Z,97344.16
2022-09-12T22:56:08.322Z,97344.90
2022-09-12T22:58:37.675Z,97339.98
2022-09-12T23:01:06.502Z,97338.58
2022-09-12T23:03:36.648Z,97333.27
2022-09-12T23:06:05.657Z,97332.92
2022-09-12T23:08:38.322Z,97331.05
2022-09-12T23:11:11.974Z,97330.10
2022-09-12T23:13:42.997Z,97330.77
2022-09-12T23:16:16.312Z,97331.06
2022-09-12T23:18:44.530Z,97329.92
2022-09-12T23:21:14.434Z,97326.52
2022-09-12T23:23:42.348Z,97322.73
2022-09-12T23:26:17.357Z,97321.73
2022-09-12T23:28:53.800Z,97321.09
2022-09-12T23:31:24.649Z,97320.44
2022-09-12T23:33:53.471Z,97321.19
2022-09-12T23:36:22.483Z,97319.61
2022-09-12T23:38:50.326Z,97320.27
2022-09-12T23:41:19.078Z,97320.54
2022-09-12T23:43:47.223Z,97318.83
2022-09-12T23:46:17.017Z,97314.70
2022-09-12T23:48:45.083Z,97315.86
2022-09-12T23:51:13.737Z,97316.41
2022-09-12T23:53:41.975Z,97318.02
2022-09-12T23:56:10.290Z,97317.19
2022-09-12T23:58:38.411Z,97317.06
